createdAt,value
2022-12-31T00:00:40.945Z,12.60
2022-12-31T00:02:42.619Z,12.50
2022-12-31T00:04:44.494Z,12.40
2022-12-31T00:06:47.227Z,12.40
2022-12-31T00:08:49.560Z,12.30
2022-12-31T00:10:51.169Z,12.30
2022-12-31T00:12:52.792Z,12.40
2022-12-31T00:14:54.498Z,12.30
2022-12-31T00:16:56.165Z,12.30
2022-12-31T00:19:01.907Z,12.80
2022-12-31T00:21:09.290Z,12.70
2022-12-31T00:23:11.413Z,12.80
2022-12-31T00:25:13.093Z,12.90
2022-12-31T00:27:14.829Z,13.00
2022-12-31T00:29:16.415Z,12.90
2022-12-31T00:31:19.582Z,13.00
2022-12-31T00:33:21.200Z,13.10
2022-12-31T00:35:22.871Z,13.10
2022-12-31T00:37:24.575Z,13.10
2022-12-31T00:39:26.242Z,13.10
2022-12-31T00:41:28.314Z,13.20
2022-12-31T00:43:30.075Z,13.30
2022-12-31T00:45:31.815Z,13.30
2022-12-31T00:47:33.451Z,13.50
2022-12-31T00:49:35.096Z,13.80
2022-12-31T00:51:36.772Z,13.80
2022-12-31T00:53:38.726Z,13.90
2022-12-31T00:55:40.321Z,13.80
2022-12-31T00:57:41.976Z,13.90
2022-12-31T00:59:43.658Z,13.80
2022-12-31T01:01:45.390Z,13.80
2022-12-31T01:03:47.993Z,13.80
2022-12-31T01:05:50.391Z,13.80
2022-12-31T01:07:52.048Z,13.90
2022-12-31T01:09:53.908Z,14.00
2022-12-31T01:11:55.535Z,14.00
2022-12-31T01:13:59.098Z,14.00
2022-12-31T01:16:07.012Z,13.90
2022-12-31T01:18:09.384Z,13.80
2022-12-31T01:20:11.329Z,13.80
2022-12-31T01:22:12.951Z,13.70
2022-12-31T01:24:14.553Z,13.80
2022-12-31T01:26:17.156Z,13.80
2022-12-31T01:28:18.818Z,13.70
2022-12-31T01:30:20.431Z,13.70
2022-12-31T01:32:22.054Z,13.70
2022-12-31T01:34:23.679Z,13.80
2022-12-31T01:36:27.408Z,13.80
2022-12-31T01:38:29.066Z,13.70
2022-12-31T01:40:30.646Z,13.70
2022-12-31T01:42:32.306Z,13.70
2022-12-31T01:44:33.919Z,13.70
2022-12-31T01:46:47.280Z,13.80
2022-12-31T01:48:50.417Z,13.80
2022-12-31T01:50:53.567Z,13.80
2022-12-31T01:52:57.584Z,13.70
2022-12-31T01:55:05.057Z,13.70
2022-12-31T01:57:07.993Z,13.60
2022-12-31T01:59:10.669Z,13.60
2022-12-31T02:01:14.768Z,13.70
2022-12-31T02:03:16.636Z,13.60
2022-12-31T02:05:18.224Z,13.60
2022-12-31T02:07:19.849Z,13.60
2022-12-31T02:09:21.444Z,13.90
2022-12-31T02:11:28.020Z,13.70
2022-12-31T02:13:29.617Z,13.60
2022-12-31T02:15:37.045Z,13.40
2022-12-31T02:17:38.623Z,13.50
2022-12-31T02:19:43.301Z,13.40
2022-12-31T02:21:53.192Z,13.30
2022-12-31T02:24:13.504Z,13.20
2022-12-31T02:26:18.149Z,13.40
2022-12-31T02:28:38.294Z,13.50
2022-12-31T02:30:40.230Z,13.70
2022-12-31T02:33:02.618Z,13.80
2022-12-31T02:35:08.934Z,13.80
2022-12-31T02:37:11.960Z,13.80
2022-12-31T02:39:14.160Z,13.80
2022-12-31T02:41:38.462Z,13.80
2022-12-31T02:43:46.256Z,13.80
2022-12-31T02:45:50.356Z,13.90
2022-12-31T02:48:14.430Z,14.00
2022-12-31T02:50:18.853Z,13.90
2022-12-31T02:52:26.657Z,14.00
2022-12-31T02:54:31.428Z,14.20
2022-12-31T02:56:45.346Z,14.30
2022-12-31T02:59:17.109Z,14.20
2022-12-31T03:01:42.395Z,14.20
2022-12-31T03:03:44.130Z,14.20
2022-12-31T03:05:46.801Z,14.00
2022-12-31T03:07:48.536Z,14.10
2022-12-31T03:09:50.275Z,14.00
2022-12-31T03:12:12.123Z,14.30
2022-12-31T03:14:13.793Z,14.40
2022-12-31T03:16:15.462Z,14.20
2022-12-31T03:18:18.285Z,14.30
2022-12-31T03:20:39.584Z,14.20
2022-12-31T03:22:42.249Z,14.20
2022-12-31T03:25:02.555Z,14.00
2022-12-31T03:27:04.150Z,14.10
2022-12-31T03:29:05.759Z,14.20
2022-12-31T03:31:08.345Z,14.20
2022-12-31T03:33:10.205Z,14.40
2022-12-31T03:35:13.491Z,14.30
2022-12-31T03:37:15.123Z,14.20
2022-12-31T03:39:16.691Z,14.10
2022-12-31T03:41:18.483Z,14.30
2022-12-31T03:43:20.498Z,14.30
2022-12-31T03:45:22.124Z,14.40
2022-12-31T03:47:23.798Z,14.40
2022-12-31T03:49:25.379Z,14.30
2022-12-31T03:51:26.972Z,14.10
2022-12-31T03:53:28.570Z,14.00
2022-12-31T03:55:30.183Z,14.30
2022-12-31T03:57:31.921Z,14.30
2022-12-31T03:59:33.554Z,14.30
2022-12-31T04:01:35.282Z,14.60
2022-12-31T04:03:36.946Z,14.70
2022-12-31T04:05:38.634Z,14.60
2022-12-31T04:07:40.297Z,14.50
2022-12-31T04:09:41.954Z,14.30
2022-12-31T04:11:43.549Z,14.30
2022-12-31T04:13:45.143Z,14.30
2022-12-31T04:15:49.229Z,14.20
2022-12-31T04:17:51.027Z,14.20
2022-12-31T04:19:52.706Z,14.00
2022-12-31T04:21:54.389Z,13.90
2022-12-31T04:23:55.979Z,13.90
2022-12-31T04:25:57.579Z,13.80
2022-12-31T04:27:59.263Z,13.80
2022-12-31T04:30:01.043Z,13.80
2022-12-31T04:32:03.510Z,13.90
2022-12-31T04:34:05.130Z,13.90
2022-12-31T04:36:07.758Z,14.00
2022-12-31T04:38:09.435Z,14.20
2022-12-31T04:40:11.234Z,14.00
2022-12-31T04:42:12.862Z,14.00
2022-12-31T04:44:14.497Z,14.00
2022-12-31T04:46:17.208Z,14.10
2022-12-31T04:48:18.910Z,14.30
2022-12-31T04:50:20.554Z,14.40
2022-12-31T04:52:22.468Z,14.60
2022-12-31T04:54:24.251Z,14.60
2022-12-31T04:56:26.671Z,14.50
2022-12-31T04:58:28.447Z,14.50
2022-12-31T05:00:30.208Z,14.60
2022-12-31T05:02:32.001Z,14.70
2022-12-31T05:04:33.682Z,14.70
2022-12-31T05:06:35.415Z,14.50
2022-12-31T05:08:37.063Z,14.50
2022-12-31T05:10:42.850Z,14.60
2022-12-31T05:12:44.677Z,14.80
2022-12-31T05:14:46.349Z,14.70
2022-12-31T05:16:48.056Z,14.90
2022-12-31T05:18:49.718Z,14.90
2022-12-31T05:20:51.368Z,14.80
2022-12-31T05:22:53.033Z,14.80
2022-12-31T05:24:54.717Z,15.00
2022-12-31T05:26:56.326Z,14.90
2022-12-31T05:29:00.356Z,14.90
2022-12-31T05:31:02.128Z,14.90
2022-12-31T05:33:03.903Z,14.90
2022-12-31T05:35:05.982Z,14.70
2022-12-31T05:37:07.591Z,14.70
2022-12-31T05:39:09.173Z,14.70
2022-12-31T05:41:10.886Z,14.70
2022-12-31T05:43:12.575Z,14.70
2022-12-31T05:45:14.212Z,14.70
2022-12-31T05:47:16.012Z,14.70
2022-12-31T05:49:17.715Z,14.60
2022-12-31T05:51:19.304Z,14.50
2022-12-31T05:53:20.864Z,14.70
2022-12-31T05:55:22.800Z,14.80
2022-12-31T05:57:24.411Z,14.90
2022-12-31T05:59:26.133Z,14.80
2022-12-31T06:01:27.849Z,14.90
2022-12-31T06:03:29.727Z,15.00
2022-12-31T06:05:31.405Z,15.00
2022-12-31T06:07:33.369Z,15.00
2022-12-31T06:09:35.089Z,14.90
2022-12-31T06:11:36.771Z,14.90
2022-12-31T06:13:38.429Z,14.90
2022-12-31T06:15:40.201Z,14.80
2022-12-31T06:17:41.969Z,14.70
2022-12-31T06:19:43.619Z,14.60
2022-12-31T06:21:45.350Z,14.50
2022-12-31T06:23:47.591Z,14.50
2022-12-31T06:25:49.897Z,14.80
2022-12-31T06:27:51.646Z,14.90
2022-12-31T06:29:53.461Z,15.00
2022-12-31T06:31:55.132Z,14.80
2022-12-31T06:33:56.731Z,14.60
2022-12-31T06:35:59.107Z,14.70
2022-12-31T06:38:00.815Z,14.70
2022-12-31T06:40:02.564Z,14.60
2022-12-31T06:42:04.328Z,14.30
2022-12-31T06:44:06.001Z,14.20
2022-12-31T06:46:08.728Z,14.00
2022-12-31T06:48:10.422Z,13.90
2022-12-31T06:50:12.103Z,14.00
2022-12-31T06:52:13.711Z,14.00
2022-12-31T06:54:15.498Z,13.90
2022-12-31T06:56:21.390Z,13.90
2022-12-31T06:58:23.177Z,13.80
2022-12-31T07:00:24.959Z,13.70
2022-12-31T07:02:52.922Z,13.60
2022-12-31T07:05:17.678Z,13.70
2022-12-31T07:07:37.729Z,13.60
2022-12-31T07:09:42.228Z,13.60
2022-12-31T07:11:54.562Z,13.50
2022-12-31T07:14:05.306Z,13.40
2022-12-31T07:16:15.679Z,13.50
2022-12-31T07:18:24.115Z,13.50
2022-12-31T07:20:25.941Z,13.70
2022-12-31T07:22:27.732Z,13.60
2022-12-31T07:24:29.443Z,13.50
2022-12-31T07:26:55.960Z,13.60
2022-12-31T07:29:08.508Z,13.80
2022-12-31T07:31:18.719Z,14.10
2022-12-31T07:33:39.357Z,14.20
2022-12-31T07:35:47.163Z,14.00
2022-12-31T07:37:58.162Z,13.90
2022-12-31T07:39:59.758Z,13.80
2022-12-31T07:42:09.287Z,13.90
2022-12-31T07:44:10.892Z,13.80
2022-12-31T07:46:27.845Z,13.70
2022-12-31T07:48:29.668Z,13.60
2022-12-31T07:50:31.506Z,13.60
2022-12-31T07:52:33.373Z,13.60
2022-12-31T07:54:34.992Z,13.80
2022-12-31T07:56:36.626Z,13.90
2022-12-31T07:58:40.974Z,13.90
2022-12-31T08:00:42.627Z,14.20
2022-12-31T08:03:03.333Z,14.10
2022-12-31T08:05:05.076Z,14.00
2022-12-31T08:07:12.545Z,13.90
2022-12-31T08:09:25.678Z,13.90
2022-12-31T08:12:06.006Z,14.00
2022-12-31T08:14:11.764Z,14.10
2022-12-31T08:16:14.097Z,14.20
2022-12-31T08:18:15.898Z,14.20
2022-12-31T08:20:17.979Z,14.50
2022-12-31T08:22:38.149Z,14.60
2022-12-31T08:24:48.853Z,14.60
2022-12-31T08:26:53.188Z,14.80
2022-12-31T08:28:55.122Z,14.80
2022-12-31T08:31:01.021Z,14.70
2022-12-31T08:33:02.692Z,14.60
2022-12-31T08:35:07.045Z,14.50
2022-12-31T08:37:16.319Z,14.60
2022-12-31T08:39:20.533Z,14.70
2022-12-31T08:41:25.045Z,14.80
2022-12-31T08:43:26.623Z,14.80
2022-12-31T08:45:28.618Z,14.80
2022-12-31T08:47:49.055Z,14.80
2022-12-31T08:49:50.784Z,15.00
2022-12-31T08:51:52.583Z,15.10
2022-12-31T08:53:55.374Z,15.00
2022-12-31T08:56:23.695Z,15.00
2022-12-31T08:58:28.134Z,15.10
2022-12-31T09:00:30.575Z,15.20
2022-12-31T09:02:32.221Z,15.10
2022-12-31T09:04:56.958Z,15.10
2022-12-31T09:07:00.774Z,15.10
2022-12-31T09:09:11.570Z,15.20
2022-12-31T09:11:23.429Z,15.30
2022-12-31T09:13:32.110Z,15.50
2022-12-31T09:15:37.198Z,15.50
2022-12-31T09:17:44.999Z,15.40
2022-12-31T09:19:47.060Z,15.40
2022-12-31T09:21:48.915Z,15.40
2022-12-31T09:23:51.026Z,15.50
2022-12-31T09:26:11.759Z,15.70
2022-12-31T09:28:19.828Z,15.80
2022-12-31T09:30:21.863Z,15.90
2022-12-31T09:32:44.372Z,16.00
2022-12-31T09:34:46.444Z,16.00
2022-12-31T09:36:52.894Z,16.00
2022-12-31T09:38:57.559Z,16.10
2022-12-31T09:41:05.727Z,16.10
2022-12-31T09:43:26.323Z,16.20
2022-12-31T09:45:40.801Z,16.50
2022-12-31T09:47:54.740Z,16.60
2022-12-31T09:50:16.186Z,16.70
2022-12-31T09:52:20.883Z,16.80
2022-12-31T09:54:22.817Z,16.90
2022-12-31T09:56:33.808Z,16.80
2022-12-31T09:58:39.008Z,17.00
2022-12-31T10:00:47.221Z,17.00
2022-12-31T10:02:55.177Z,17.10
2022-12-31T10:05:15.706Z,17.30
2022-12-31T10:07:20.591Z,17.40
2022-12-31T10:09:41.150Z,17.50
2022-12-31T10:11:58.241Z,17.60
2022-12-31T10:14:06.107Z,17.60
2022-12-31T10:16:13.989Z,17.70
2022-12-31T10:18:34.427Z,17.80
2022-12-31T10:20:57.956Z,17.80
2022-12-31T10:23:19.852Z,17.90
2022-12-31T10:25:21.542Z,17.80
2022-12-31T10:27:47.912Z,17.90
2022-12-31T10:30:02.039Z,18.00
2022-12-31T10:32:19.019Z,17.90
2022-12-31T10:34:32.046Z,18.00
2022-12-31T10:36:52.918Z,18.10
2022-12-31T10:38:59.502Z,18.10
2022-12-31T10:41:11.204Z,18.10
2022-12-31T10:43:13.387Z,18.20
2022-12-31T10:45:21.361Z,18.30
2022-12-31T10:47:42.029Z,18.20
2022-12-31T10:50:02.181Z,18.30
2022-12-31T10:52:16.194Z,18.30
2022-12-31T10:54:36.235Z,18.40
2022-12-31T10:56:54.950Z,18.40
2022-12-31T10:58:56.755Z,18.50
2022-12-31T11:01:04.357Z,18.40
2022-12-31T11:03:22.158Z,18.50
2022-12-31T11:05:27.064Z,18.60
2022-12-31T11:07:43.564Z,18.70
2022-12-31T11:09:51.424Z,18.80
2022-12-31T11:11:58.508Z,18.80
2022-12-31T11:14:18.835Z,18.80
2022-12-31T11:16:38.960Z,18.90
2022-12-31T11:18:51.354Z,19.00
2022-12-31T11:21:04.050Z,19.20
2022-12-31T11:23:21.042Z,19.30
2022-12-31T11:25:41.103Z,19.30
2022-12-31T11:27:49.422Z,19.10
2022-12-31T11:29:54.285Z,19.20
2022-12-31T11:32:06.517Z,19.30
2022-12-31T11:34:19.102Z,19.40
2022-12-31T11:36:40.372Z,19.40
2022-12-31T11:39:01.652Z,19.50
2022-12-31T11:41:23.700Z,19.50
2022-12-31T11:43:34.658Z,19.50
2022-12-31T11:45:57.374Z,19.60
2022-12-31T11:48:29.686Z,19.60
2022-12-31T11:50:37.285Z,19.50
2022-12-31T11:52:56.916Z,19.70
2022-12-31T11:55:01.515Z,19.70
2022-12-31T11:57:10.338Z,19.90
2022-12-31T11:59:19.016Z,20.10
2022-12-31T12:01:32.178Z,20.20
2022-12-31T12:03:38.486Z,20.20
2022-12-31T12:05:40.514Z,20.20
2022-12-31T12:07:42.174Z,20.40
2022-12-31T12:09:44.946Z,20.60
2022-12-31T12:11:46.580Z,20.40
2022-12-31T12:13:48.557Z,20.10
2022-12-31T12:15:52.748Z,20.10
2022-12-31T12:17:56.013Z,20.00
2022-12-31T12:20:00.216Z,20.10
2022-12-31T12:22:11.905Z,20.20
2022-12-31T12:24:25.655Z,20.50
2022-12-31T12:26:33.054Z,20.60
2022-12-31T12:28:45.356Z,20.70
2022-12-31T12:30:55.202Z,20.70
2022-12-31T12:33:01.501Z,20.70
2022-12-31T12:35:13.055Z,20.50
2022-12-31T12:37:23.935Z,20.60
2022-12-31T12:39:26.865Z,20.50
2022-12-31T12:41:28.547Z,20.40
2022-12-31T12:43:31.918Z,20.30
2022-12-31T12:45:46.266Z,20.20
2022-12-31T12:47:55.414Z,20.30
2022-12-31T12:49:57.070Z,20.20
2022-12-31T12:51:58.679Z,20.30
2022-12-31T12:54:09.107Z,20.40
2022-12-31T12:56:30.595Z,20.50
2022-12-31T12:58:38.330Z,20.50
2022-12-31T13:00:47.730Z,20.70
2022-12-31T13:02:58.369Z,20.70
2022-12-31T13:05:00.060Z,20.60
2022-12-31T13:07:20.396Z,20.50
2022-12-31T13:09:28.089Z,20.40
2022-12-31T13:11:48.220Z,20.30
2022-12-31T13:14:03.418Z,20.20
2022-12-31T13:16:05.176Z,20.10
2022-12-31T13:18:15.939Z,20.00
2022-12-31T13:20:29.889Z,19.90
2022-12-31T13:22:43.501Z,20.00
2022-12-31T13:24:51.030Z,19.80
2022-12-31T13:26:52.635Z,19.80
2022-12-31T13:28:54.687Z,19.70
2022-12-31T13:31:06.303Z,19.50
2022-12-31T13:33:16.031Z,19.60
2022-12-31T13:35:20.640Z,19.70
2022-12-31T13:37:25.958Z,19.70
2022-12-31T13:39:29.529Z,19.60
2022-12-31T13:41:50.107Z,19.40
2022-12-31T13:43:57.697Z,19.40
2022-12-31T13:46:08.574Z,19.40
2022-12-31T13:48:13.556Z,19.10
2022-12-31T13:50:27.027Z,19.20
2022-12-31T13:52:40.731Z,19.00
2022-12-31T13:54:51.655Z,18.90
2022-12-31T13:56:53.693Z,18.90
2022-12-31T13:59:03.408Z,19.00
2022-12-31T14:01:05.152Z,18.80
2022-12-31T14:03:17.374Z,18.90
2022-12-31T14:05:23.455Z,18.80
2022-12-31T14:07:46.259Z,18.60
2022-12-31T14:09:48.051Z,18.70
2022-12-31T14:12:08.050Z,18.60
2022-12-31T14:14:28.566Z,18.70
2022-12-31T14:16:33.310Z,18.30
2022-12-31T14:18:53.155Z,18.20
2022-12-31T14:20:57.854Z,17.90
2022-12-31T14:22:59.543Z,17.80
2022-12-31T14:25:02.687Z,17.60
2022-12-31T14:27:08.158Z,17.50
2022-12-31T14:29:09.823Z,17.40
2022-12-31T14:31:21.089Z,17.50
2022-12-31T14:33:35.150Z,17.40
2022-12-31T14:35:36.783Z,17.20
2022-12-31T14:37:44.481Z,17.00
2022-12-31T14:39:46.169Z,16.90
2022-12-31T14:41:58.025Z,16.90
2022-12-31T14:44:02.691Z,16.80
2022-12-31T14:46:07.717Z,16.80
2022-12-31T14:48:28.245Z,16.90
2022-12-31T14:50:30.761Z,16.90
2022-12-31T14:52:33.642Z,16.90
2022-12-31T14:54:36.326Z,16.80
2022-12-31T14:56:40.974Z,16.70
2022-12-31T14:58:43.611Z,16.90
2022-12-31T15:00:55.550Z,16.80
2022-12-31T15:02:57.202Z,16.50
2022-12-31T15:05:04.832Z,16.40
2022-12-31T15:07:21.879Z,16.20
2022-12-31T15:09:29.525Z,16.10
2022-12-31T15:11:54.449Z,15.90
2022-12-31T15:14:14.763Z,15.80
2022-12-31T15:16:34.741Z,15.80
2022-12-31T15:18:54.823Z,15.90
2022-12-31T15:21:10.635Z,15.80
2022-12-31T15:23:13.801Z,15.60
2022-12-31T15:25:21.539Z,15.50
2022-12-31T15:27:23.168Z,15.50
2022-12-31T15:29:24.778Z,15.50
2022-12-31T15:31:26.968Z,15.40
2022-12-31T15:33:42.288Z,15.40
2022-12-31T15:35:48.646Z,15.20
2022-12-31T15:38:20.925Z,15.20
2022-12-31T15:40:25.305Z,15.10
2022-12-31T15:42:50.228Z,15.10
2022-12-31T15:45:04.134Z,15.20
2022-12-31T15:57:09.198Z,15.30
2022-12-31T16:16:21.456Z,15.00
2022-12-31T16:26:38.609Z,14.70
2022-12-31T16:45:50.066Z,14.00
2022-12-31T16:48:04.114Z,14.00
2022-12-31T16:51:05.189Z,13.80
2022-12-31T17:01:57.908Z,13.60
2022-12-31T17:07:25.094Z,13.40
2022-12-31T17:09:45.942Z,13.30
2022-12-31T17:12:09.406Z,13.30
2022-12-31T17:14:16.972Z,13.20
2022-12-31T17:16:21.711Z,13.20
2022-12-31T17:18:30.404Z,13.20
2022-12-31T17:20:33.474Z,13.10
2022-12-31T17:22:42.651Z,13.10
2022-12-31T17:24:48.913Z,13.00
2022-12-31T17:26:51.819Z,12.90
2022-12-31T17:28:56.515Z,12.90
2022-12-31T17:30:59.918Z,12.90
2022-12-31T17:33:04.312Z,12.90
2022-12-31T17:35:25.841Z,12.80
2022-12-31T17:37:28.569Z,12.80
2022-12-31T17:39:44.018Z,12.80
2022-12-31T17:41:46.549Z,12.70
2022-12-31T17:43:51.522Z,12.70
2022-12-31T17:46:02.869Z,12.70
2022-12-31T17:48:06.783Z,12.70
2022-12-31T17:50:25.026Z,12.70
2022-12-31T17:52:29.667Z,12.60
2022-12-31T17:55:13.712Z,12.50
2022-12-31T18:01:04.170Z,12.50
2022-12-31T18:03:12.531Z,12.40
2022-12-31T18:05:24.565Z,12.30
2022-12-31T18:07:33.428Z,12.30
2022-12-31T18:09:37.638Z,12.20
2022-12-31T18:11:40.842Z,12.20
2022-12-31T18:13:44.037Z,12.10
2022-12-31T18:15:45.657Z,12.10
2022-12-31T18:17:49.551Z,12.10
2022-12-31T18:20:05.211Z,12.10
2022-12-31T18:22:17.240Z,12.10
2022-12-31T18:24:24.315Z,12.00
2022-12-31T18:28:58.151Z,12.00
2022-12-31T18:31:01.936Z,11.90
2022-12-31T18:33:15.371Z,11.90
2022-12-31T18:38:07.951Z,11.80
2022-12-31T18:41:13.501Z,11.80
2022-12-31T18:49:03.740Z,11.70
2022-12-31T19:01:51.124Z,11.40
2022-12-31T19:16:26.442Z,11.20
2022-12-31T19:19:13.056Z,11.20
2022-12-31T19:32:01.656Z,10.90
2022-12-31T19:51:27.672Z,10.80
2022-12-31T19:56:24.070Z,10.80
2022-12-31T20:06:29.910Z,10.80
2022-12-31T20:08:40.249Z,10.70
2022-12-31T20:10:44.162Z,10.70
2022-12-31T20:15:47.891Z,10.80
2022-12-31T20:18:00.482Z,10.70
2022-12-31T20:20:57.775Z,10.80
2022-12-31T20:24:00.549Z,10.80
2022-12-31T20:29:48.412Z,10.80
2022-12-31T20:38:43.432Z,10.80
2022-12-31T20:40:54.912Z,10.80
2022-12-31T20:42:56.675Z,10.70
2022-12-31T20:44:58.533Z,10.60
2022-12-31T20:47:00.157Z,10.70
2022-12-31T20:49:03.996Z,10.70
2022-12-31T20:51:28.893Z,10.70
2022-12-31T20:53:30.665Z,10.60
2022-12-31T20:55:32.588Z,10.60
2022-12-31T20:57:34.357Z,10.60
2022-12-31T20:59:36.019Z,10.50
2022-12-31T21:02:11.782Z,10.50
2022-12-31T21:04:06.042Z,10.50
2022-12-31T21:06:08.291Z,10.50
2022-12-31T21:08:09.944Z,10.50
2022-12-31T21:10:11.639Z,10.40
2022-12-31T21:12:32.900Z,10.40
2022-12-31T21:14:36.570Z,10.40
2022-12-31T21:16:41.663Z,10.40
2022-12-31T21:18:43.296Z,10.30
2022-12-31T21:20:48.244Z,10.40
2022-12-31T21:22:49.959Z,10.40
2022-12-31T21:24:51.989Z,10.30
2022-12-31T21:26:56.663Z,10.30
2022-12-31T21:28:58.383Z,10.20
2022-12-31T21:31:01.176Z,10.20
2022-12-31T21:33:04.024Z,10.20
2022-12-31T21:35:40.701Z,10.20
2022-12-31T21:37:57.578Z,10.10
2022-12-31T21:39:49.299Z,10.10
2022-12-31T21:41:50.900Z,10.10
2022-12-31T21:43:52.588Z,10.00
2022-12-31T21:46:02.753Z,10.00
2022-12-31T21:48:20.236Z,10.00
2022-12-31T21:50:21.875Z,9.90
2022-12-31T21:52:26.482Z,9.90
2022-12-31T21:54:46.895Z,9.90
2022-12-31T21:56:48.496Z,9.90
2022-12-31T21:59:13.776Z,9.90
2022-12-31T22:01:58.041Z,9.90
2022-12-31T22:03:59.841Z,9.80
2022-12-31T22:06:16.074Z,9.80
2022-12-31T22:08:18.201Z,9.70
2022-12-31T22:10:19.881Z,9.70
2022-12-31T22:12:21.688Z,9.70
2022-12-31T22:14:23.339Z,9.70
2022-12-31T22:16:25.029Z,9.70
2022-12-31T22:18:27.330Z,9.60
2022-12-31T22:20:29.188Z,9.60
2022-12-31T22:22:30.972Z,9.50
2022-12-31T22:24:32.529Z,9.50
2022-12-31T22:26:34.163Z,9.50
2022-12-31T22:28:39.209Z,9.60
2022-12-31T22:30:41.519Z,9.60
2022-12-31T22:32:43.126Z,9.60
2022-12-31T22:34:44.913Z,9.50
2022-12-31T22:36:46.573Z,9.70
2022-12-31T22:38:48.767Z,9.60
2022-12-31T22:40:50.380Z,9.50
2022-12-31T22:42:52.256Z,9.40
2022-12-31T22:44:53.990Z,9.40
2022-12-31T22:46:56.194Z,9.40
2022-12-31T22:48:59.437Z,9.30
2022-12-31T22:51:01.067Z,9.30
2022-12-31T22:53:02.646Z,9.30
2022-12-31T22:55:04.664Z,9.30
2022-12-31T22:57:06.471Z,9.20
2022-12-31T22:59:08.348Z,9.20
2022-12-31T23:01:19.078Z,9.30
2022-12-31T23:03:20.937Z,9.40
2022-12-31T23:05:22.599Z,9.50
2022-12-31T23:08:34.818Z,9.60
2022-12-31T23:10:55.247Z,9.50
2022-12-31T23:12:58.357Z,9.40
2022-12-31T23:15:19.868Z,9.40
2022-12-31T23:17:43.481Z,9.40
2022-12-31T23:20:03.923Z,9.40
2022-12-31T23:22:24.288Z,9.30
2022-12-31T23:24:29.974Z,9.20
2022-12-31T23:26:31.752Z,9.20
2022-12-31T23:28:33.501Z,9.20
2022-12-31T23:30:38.060Z,9.20
2022-12-31T23:32:40.742Z,9.10
2022-12-31T23:34:44.521Z,9.20
2022-12-31T23:36:46.229Z,9.10
2022-12-31T23:38:48.081Z,9.20
2022-12-31T23:40:49.831Z,9.10
2022-12-31T23:42:51.583Z,9.00
2022-12-31T23:44:54.469Z,8.90
2022-12-31T23:46:56.694Z,9.00
2022-12-31T23:48:58.586Z,9.00
2022-12-31T23:51:00.364Z,9.00
2022-12-31T23:53:02.191Z,9.10
2022-12-31T23:55:04.202Z,9.00
2022-12-31T23:57:06.022Z,8.80
2022-12-31T23:59:10.455Z,8.80
